KSPI

Abraham Lincoln Capital Airport

Springfield, Illinois, USA
METAR KSPI 220452Z 26003KT 10SM CLR 20/20 A2970 RMK AO2 SLP053 T02000200
Observed Flight Rules
Jun-22 @ 04:52 UTC (44 minutes ago) Visual Flight Rules
Wind Visibility Clouds
260° at 3 knots 10 miles
  • Clear skies
Temperatures Readings
Current 20°C / 68°F
Dewpoint 20°C / 68°F
Humidity 100%
Altimeter 29.7" Hg
Pressure 1005.3 hPa
Elevation 181
METAR KSPI 220452Z 26003KT 10SM CLR 20/20 A2970 RMK AO2 SLP053 T02000200
Observed Flight Rules
Jun-22 @ 04:52 UTC
(44 minutes ago)
VFR
Wind Visibility
260° at 3 knots 10 miles
Clouds
  • Clear skies
Temperature Dewpoint
20°C / 68°F 20°C / 68°F
Humidity Altimeter Pressure
100% 29.7" Hg 1005.3 hPa